sensor_id;sensor_type;location;lat;lon;timestamp;P1;durP1;ratioP1;P2;durP2;ratioP2
21014;SDS011;19207;-23.482;-46.500;2022-09-09T00:00:34;77.78;;;27.40;;
21014;SDS011;19207;-23.482;-46.500;2022-09-09T00:03:27;72.60;;;28.50;;
21014;SDS011;19207;-23.482;-46.500;2022-09-09T00:06:16;66.05;;;27.00;;
21014;SDS011;19207;-23.482;-46.500;2022-09-09T00:09:16;67.30;;;28.27;;
21014;SDS011;19207;-23.482;-46.500;2022-09-09T00:12:10;57.85;;;27.45;;
21014;SDS011;19207;-23.482;-46.500;2022-09-09T00:15:05;84.15;;;28.23;;
21014;SDS011;19207;-23.482;-46.500;2022-09-09T00:21:06;74.55;;;26.90;;
21014;SDS011;19207;-23.482;-46.500;2022-09-09T00:23:54;85.12;;;27.55;;
21014;SDS011;19207;-23.482;-46.500;2022-09-09T00:26:48;80.53;;;28.15;;
21014;SDS011;19207;-23.482;-46.500;2022-09-09T00:32:27;73.00;;;28.62;;
21014;SDS011;19207;-23.482;-46.500;2022-09-09T00:35:22;68.45;;;28.58;;
21014;SDS011;19207;-23.482;-46.500;2022-09-09T00:38:18;67.90;;;28.50;;
21014;SDS011;19207;-23.482;-46.500;2022-09-09T00:41:08;77.85;;;28.33;;
21014;SDS011;19207;-23.482;-46.500;2022-09-09T00:43:57;90.93;;;30.35;;
21014;SDS011;19207;-23.482;-46.500;2022-09-09T00:49:46;65.50;;;27.40;;
21014;SDS011;19207;-23.482;-46.500;2022-09-09T00:55:42;68.18;;;27.85;;
21014;SDS011;19207;-23.482;-46.500;2022-09-09T00:58:31;62.97;;;26.45;;
21014;SDS011;19207;-23.482;-46.500;2022-09-09T01:01:17;78.85;;;30.33;;
21014;SDS011;19207;-23.482;-46.500;2022-09-09T01:04:16;83.72;;;30.77;;
21014;SDS011;19207;-23.482;-46.500;2022-09-09T01:07:09;90.95;;;29.90;;
21014;SDS011;19207;-23.482;-46.500;2022-09-09T01:10:00;71.18;;;31.20;;
21014;SDS011;19207;-23.482;-46.500;2022-09-09T01:12:50;94.13;;;30.23;;
21014;SDS011;19207;-23.482;-46.500;2022-09-09T01:15:37;78.30;;;31.87;;
21014;SDS011;19207;-23.482;-46.500;2022-09-09T01:18:29;83.65;;;33.10;;
21014;SDS011;19207;-23.482;-46.500;2022-09-09T01:21:39;80.72;;;31.15;;
21014;SDS011;19207;-23.482;-46.500;2022-09-09T01:24:38;88.62;;;31.20;;
21014;SDS011;19207;-23.482;-46.500;2022-09-09T01:27:24;84.85;;;33.58;;
21014;SDS011;19207;-23.482;-46.500;2022-09-09T01:30:14;98.45;;;38.45;;
21014;SDS011;19207;-23.482;-46.500;2022-09-09T01:33:02;91.85;;;36.85;;
21014;SDS011;19207;-23.482;-46.500;2022-09-09T01:35:50;90.43;;;36.50;;
21014;SDS011;19207;-23.482;-46.500;2022-09-09T01:38:41;104.80;;;38.95;;
21014;SDS011;19207;-23.482;-46.500;2022-09-09T01:41:28;106.07;;;37.97;;
21014;SDS011;19207;-23.482;-46.500;2022-09-09T01:44:14;103.70;;;39.88;;
21014;SDS011;19207;-23.482;-46.500;2022-09-09T01:47:03;108.45;;;41.22;;
21014;SDS011;19207;-23.482;-46.500;2022-09-09T01:49:49;102.40;;;40.92;;
21014;SDS011;19207;-23.482;-46.500;2022-09-09T01:52:37;99.85;;;40.60;;
21014;SDS011;19207;-23.482;-46.500;2022-09-09T01:55:28;109.90;;;42.10;;
21014;SDS011;19207;-23.482;-46.500;2022-09-09T01:58:39;97.93;;;40.65;;
21014;SDS011;19207;-23.482;-46.500;2022-09-09T02:01:24;98.43;;;39.38;;
21014;SDS011;19207;-23.482;-46.500;2022-09-09T02:04:18;103.40;;;39.72;;
21014;SDS011;19207;-23.482;-46.500;2022-09-09T02:10:21;113.40;;;41.00;;
21014;SDS011;19207;-23.482;-46.500;2022-09-09T02:13:12;99.10;;;38.00;;
21014;SDS011;19207;-23.482;-46.500;2022-09-09T02:21:59;96.53;;;38.75;;
21014;SDS011;19207;-23.482;-46.500;2022-09-09T02:24:47;103.05;;;38.47;;
21014;SDS011;19207;-23.482;-46.500;2022-09-09T02:27:35;91.43;;;37.67;;
21014;SDS011;19207;-23.482;-46.500;2022-09-09T02:30:21;95.55;;;37.17;;
21014;SDS011;19207;-23.482;-46.500;2022-09-09T02:33:08;90.45;;;39.97;;
21014;SDS011;19207;-23.482;-46.500;2022-09-09T02:35:55;99.87;;;39.13;;
21014;SDS011;19207;-23.482;-46.500;2022-09-09T02:38:47;107.05;;;39.65;;
21014;SDS011;19207;-23.482;-46.500;2022-09-09T02:41:37;92.07;;;38.75;;
21014;SDS011;19207;-23.482;-46.500;2022-09-09T02:44:23;105.68;;;40.50;;
21014;SDS011;19207;-23.482;-46.500;2022-09-09T02:50:08;95.50;;;39.65;;
21014;SDS011;19207;-23.482;-46.500;2022-09-09T02:53:06;114.70;;;38.92;;
21014;SDS011;19207;-23.482;-46.500;2022-09-09T02:55:57;100.68;;;39.42;;
21014;SDS011;19207;-23.482;-46.500;2022-09-09T02:58:44;106.05;;;38.58;;
21014;SDS011;19207;-23.482;-46.500;2022-09-09T03:01:31;105.20;;;40.70;;
21014;SDS011;19207;-23.482;-46.500;2022-09-09T03:04:18;114.28;;;41.05;;
21014;SDS011;19207;-23.482;-46.500;2022-09-09T03:07:05;91.57;;;38.17;;
21014;SDS011;19207;-23.482;-46.500;2022-09-09T03:09:51;97.25;;;39.72;;
21014;SDS011;19207;-23.482;-46.500;2022-09-09T03:12:38;96.05;;;40.63;;
21014;SDS011;19207;-23.482;-46.500;2022-09-09T03:15:25;159.73;;;56.42;;
21014;SDS011;19207;-23.482;-46.500;2022-09-09T03:18:16;106.28;;;45.90;;
21014;SDS011;19207;-23.482;-46.500;2022-09-09T03:21:03;119.18;;;45.90;;
21014;SDS011;19207;-23.482;-46.500;2022-09-09T03:23:50;101.87;;;42.05;;
21014;SDS011;19207;-23.482;-46.500;2022-09-09T03:26:37;117.07;;;43.47;;
21014;SDS011;19207;-23.482;-46.500;2022-09-09T03:29:26;113.53;;;42.22;;
21014;SDS011;19207;-23.482;-46.500;2022-09-09T03:32:13;111.05;;;42.40;;
21014;SDS011;19207;-23.482;-46.500;2022-09-09T03:35:02;111.95;;;41.35;;
21014;SDS011;19207;-23.482;-46.500;2022-09-09T03:37:48;115.57;;;42.53;;
21014;SDS011;19207;-23.482;-46.500;2022-09-09T03:40:35;113.03;;;45.92;;
21014;SDS011;19207;-23.482;-46.500;2022-09-09T03:43:22;133.90;;;49.10;;
21014;SDS011;19207;-23.482;-46.500;2022-09-09T03:46:08;128.20;;;49.80;;
21014;SDS011;19207;-23.482;-46.500;2022-09-09T03:48:55;133.30;;;51.20;;
21014;SDS011;19207;-23.482;-46.500;2022-09-09T03:51:42;143.40;;;51.63;;
21014;SDS011;19207;-23.482;-46.500;2022-09-09T03:54:29;130.63;;;50.40;;
21014;SDS011;19207;-23.482;-46.500;2022-09-09T03:57:16;121.72;;;48.28;;
21014;SDS011;19207;-23.482;-46.500;2022-09-09T04:00:03;116.00;;;46.40;;
21014;SDS011;19207;-23.482;-46.500;2022-09-09T04:02:50;134.57;;;48.00;;
21014;SDS011;19207;-23.482;-46.500;2022-09-09T04:05:41;110.22;;;45.08;;
21014;SDS011;19207;-23.482;-46.500;2022-09-09T04:08:28;115.32;;;44.55;;
21014;SDS011;19207;-23.482;-46.500;2022-09-09T04:11:16;111.88;;;42.92;;
21014;SDS011;19207;-23.482;-46.500;2022-09-09T04:14:03;100.07;;;42.58;;
21014;SDS011;19207;-23.482;-46.500;2022-09-09T04:16:50;112.07;;;42.47;;
21014;SDS011;19207;-23.482;-46.500;2022-09-09T04:19:37;123.50;;;44.17;;
21014;SDS011;19207;-23.482;-46.500;2022-09-09T04:22:23;103.85;;;44.28;;
21014;SDS011;19207;-23.482;-46.500;2022-09-09T04:25:10;119.40;;;45.28;;
21014;SDS011;19207;-23.482;-46.500;2022-09-09T04:27:57;114.30;;;44.15;;
21014;SDS011;19207;-23.482;-46.500;2022-09-09T04:30:44;107.93;;;45.90;;
21014;SDS011;19207;-23.482;-46.500;2022-09-09T04:33:31;108.80;;;44.92;;
21014;SDS011;19207;-23.482;-46.500;2022-09-09T04:36:18;121.03;;;43.60;;
21014;SDS011;19207;-23.482;-46.500;2022-09-09T04:39:05;122.97;;;45.65;;
21014;SDS011;19207;-23.482;-46.500;2022-09-09T04:41:51;118.32;;;50.53;;
21014;SDS011;19207;-23.482;-46.500;2022-09-09T04:44:39;144.62;;;60.70;;
21014;SDS011;19207;-23.482;-46.500;2022-09-09T04:47:26;151.77;;;69.82;;
21014;SDS011;19207;-23.482;-46.500;2022-09-09T04:50:12;159.12;;;67.15;;
21014;SDS011;19207;-23.482;-46.500;2022-09-09T04:53:00;140.27;;;68.00;;
21014;SDS011;19207;-23.482;-46.500;2022-09-09T04:55:47;143.80;;;63.70;;
21014;SDS011;19207;-23.482;-46.500;2022-09-09T04:58:34;139.88;;;63.72;;
21014;SDS011;19207;-23.482;-46.500;2022-09-09T05:01:22;141.43;;;64.18;;
21014;SDS011;19207;-23.482;-46.500;2022-09-09T05:04:09;149.35;;;69.60;;
21014;SDS011;19207;-23.482;-46.500;2022-09-09T05:06:56;126.80;;;57.55;;
21014;SDS011;19207;-23.482;-46.500;2022-09-09T05:09:43;105.55;;;45.65;;
21014;SDS011;19207;-23.482;-46.500;2022-09-09T05:12:30;107.07;;;41.55;;
21014;SDS011;19207;-23.482;-46.500;2022-09-09T05:15:17;85.60;;;37.80;;
21014;SDS011;19207;-23.482;-46.500;2022-09-09T05:18:04;92.53;;;35.92;;
21014;SDS011;19207;-23.482;-46.500;2022-09-09T05:20:50;90.45;;;35.60;;
21014;SDS011;19207;-23.482;-46.500;2022-09-09T05:23:37;76.15;;;34.38;;
21014;SDS011;19207;-23.482;-46.500;2022-09-09T05:26:23;83.32;;;33.30;;
21014;SDS011;19207;-23.482;-46.500;2022-09-09T05:29:11;74.20;;;32.30;;
21014;SDS011;19207;-23.482;-46.500;2022-09-09T05:31:57;79.57;;;34.50;;
21014;SDS011;19207;-23.482;-46.500;2022-09-09T05:34:44;70.62;;;31.77;;
21014;SDS011;19207;-23.482;-46.500;2022-09-09T05:37:31;69.15;;;29.58;;
21014;SDS011;19207;-23.482;-46.500;2022-09-09T05:40:18;69.28;;;28.92;;
21014;SDS011;19207;-23.482;-46.500;2022-09-09T05:43:06;68.40;;;29.12;;
21014;SDS011;19207;-23.482;-46.500;2022-09-09T05:46:04;68.10;;;29.80;;
21014;SDS011;19207;-23.482;-46.500;2022-09-09T05:48:51;75.40;;;30.30;;
21014;SDS011;19207;-23.482;-46.500;2022-09-09T05:51:38;92.93;;;38.50;;
21014;SDS011;19207;-23.482;-46.500;2022-09-09T05:54:25;85.30;;;36.10;;
21014;SDS011;19207;-23.482;-46.500;2022-09-09T05:57:12;77.93;;;36.22;;
21014;SDS011;19207;-23.482;-46.500;2022-09-09T05:59:58;92.90;;;37.85;;
21014;SDS011;19207;-23.482;-46.500;2022-09-09T06:02:50;84.68;;;37.00;;
21014;SDS011;19207;-23.482;-46.500;2022-09-09T06:05:37;97.97;;;41.65;;
21014;SDS011;19207;-23.482;-46.500;2022-09-09T06:08:24;81.93;;;38.58;;
21014;SDS011;19207;-23.482;-46.500;2022-09-09T06:11:18;91.80;;;39.65;;
21014;SDS011;19207;-23.482;-46.500;2022-09-09T06:14:05;84.40;;;37.78;;
21014;SDS011;19207;-23.482;-46.500;2022-09-09T06:16:51;77.37;;;36.25;;
21014;SDS011;19207;-23.482;-46.500;2022-09-09T06:19:39;88.20;;;36.80;;
21014;SDS011;19207;-23.482;-46.500;2022-09-09T06:22:25;87.12;;;36.33;;
21014;SDS011;19207;-23.482;-46.500;2022-09-09T06:25:12;72.10;;;34.28;;
21014;SDS011;19207;-23.482;-46.500;2022-09-09T06:27:58;83.20;;;38.22;;
21014;SDS011;19207;-23.482;-46.500;2022-09-09T06:30:45;84.32;;;35.63;;
21014;SDS011;19207;-23.482;-46.500;2022-09-09T06:33:32;85.28;;;36.00;;
21014;SDS011;19207;-23.482;-46.500;2022-09-09T06:36:21;89.05;;;37.35;;
21014;SDS011;19207;-23.482;-46.500;2022-09-09T06:39:08;93.60;;;38.08;;
21014;SDS011;19207;-23.482;-46.500;2022-09-09T06:41:56;81.30;;;35.75;;
21014;SDS011;19207;-23.482;-46.500;2022-09-09T06:44:44;97.12;;;36.13;;
21014;SDS011;19207;-23.482;-46.500;2022-09-09T06:47:30;89.43;;;36.75;;
21014;SDS011;19207;-23.482;-46.500;2022-09-09T06:50:18;100.30;;;39.03;;
21014;SDS011;19207;-23.482;-46.500;2022-09-09T06:53:06;106.25;;;40.03;;
21014;SDS011;19207;-23.482;-46.500;2022-09-09T06:55:53;102.38;;;40.00;;
21014;SDS011;19207;-23.482;-46.500;2022-09-09T06:58:40;92.62;;;38.90;;
21014;SDS011;19207;-23.482;-46.500;2022-09-09T07:01:29;90.62;;;40.53;;
21014;SDS011;19207;-23.482;-46.500;2022-09-09T07:04:16;105.90;;;41.10;;
21014;SDS011;19207;-23.482;-46.500;2022-09-09T07:07:03;102.35;;;45.95;;
21014;SDS011;19207;-23.482;-46.500;2022-09-09T07:09:49;123.97;;;49.65;;
21014;SDS011;19207;-23.482;-46.500;2022-09-09T07:12:36;121.87;;;50.10;;
21014;SDS011;19207;-23.482;-46.500;2022-09-09T07:15:23;128.77;;;53.85;;
21014;SDS011;19207;-23.482;-46.500;2022-09-09T07:18:10;150.80;;;55.00;;
21014;SDS011;19207;-23.482;-46.500;2022-09-09T07:20:57;144.80;;;52.92;;
21014;SDS011;19207;-23.482;-46.500;2022-09-09T07:23:44;132.82;;;53.70;;
21014;SDS011;19207;-23.482;-46.500;2022-09-09T07:26:30;116.75;;;48.85;;
21014;SDS011;19207;-23.482;-46.500;2022-09-09T07:29:17;131.57;;;49.28;;
21014;SDS011;19207;-23.482;-46.500;2022-09-09T07:32:04;128.12;;;51.03;;
21014;SDS011;19207;-23.482;-46.500;2022-09-09T07:34:51;124.53;;;51.17;;
21014;SDS011;19207;-23.482;-46.500;2022-09-09T07:37:38;122.50;;;51.83;;
21014;SDS011;19207;-23.482;-46.500;2022-09-09T07:40:26;111.22;;;46.53;;
21014;SDS011;19207;-23.482;-46.500;2022-09-09T07:43:13;115.15;;;46.67;;
21014;SDS011;19207;-23.482;-46.500;2022-09-09T07:46:02;124.78;;;50.55;;
21014;SDS011;19207;-23.482;-46.500;2022-09-09T07:48:52;123.07;;;49.30;;
21014;SDS011;19207;-23.482;-46.500;2022-09-09T07:51:40;139.73;;;51.83;;
21014;SDS011;19207;-23.482;-46.500;2022-09-09T07:54:27;142.20;;;54.80;;
21014;SDS011;19207;-23.482;-46.500;2022-09-09T07:57:14;171.60;;;66.90;;
21014;SDS011;19207;-23.482;-46.500;2022-09-09T08:00:03;203.07;;;71.37;;
21014;SDS011;19207;-23.482;-46.500;2022-09-09T08:02:57;149.93;;;59.42;;
21014;SDS011;19207;-23.482;-46.500;2022-09-09T08:05:45;151.32;;;60.42;;
21014;SDS011;19207;-23.482;-46.500;2022-09-09T08:08:32;142.68;;;58.45;;
21014;SDS011;19207;-23.482;-46.500;2022-09-09T08:11:19;133.77;;;56.40;;
21014;SDS011;19207;-23.482;-46.500;2022-09-09T08:14:06;133.32;;;56.25;;
21014;SDS011;19207;-23.482;-46.500;2022-09-09T08:16:53;133.00;;;54.60;;
21014;SDS011;19207;-23.482;-46.500;2022-09-09T08:19:39;127.07;;;52.28;;
21014;SDS011;19207;-23.482;-46.500;2022-09-09T08:22:26;160.45;;;64.25;;
21014;SDS011;19207;-23.482;-46.500;2022-09-09T08:25:13;168.50;;;68.72;;
21014;SDS011;19207;-23.482;-46.500;2022-09-09T08:28:00;162.57;;;71.75;;
21014;SDS011;19207;-23.482;-46.500;2022-09-09T08:30:48;181.55;;;74.18;;
21014;SDS011;19207;-23.482;-46.500;2022-09-09T08:33:35;192.02;;;84.53;;
21014;SDS011;19207;-23.482;-46.500;2022-09-09T08:36:24;223.00;;;91.35;;
21014;SDS011;19207;-23.482;-46.500;2022-09-09T08:39:11;222.63;;;90.03;;
21014;SDS011;19207;-23.482;-46.500;2022-09-09T08:48:16;256.77;;;105.03;;
21014;SDS011;19207;-23.482;-46.500;2022-09-09T08:51:04;251.55;;;102.75;;
21014;SDS011;19207;-23.482;-46.500;2022-09-09T08:53:52;229.98;;;100.45;;
21014;SDS011;19207;-23.482;-46.500;2022-09-09T08:56:40;223.07;;;99.15;;
21014;SDS011;19207;-23.482;-46.500;2022-09-09T08:59:27;224.40;;;100.47;;
21014;SDS011;19207;-23.482;-46.500;2022-09-09T09:02:15;209.62;;;95.53;;
21014;SDS011;19207;-23.482;-46.500;2022-09-09T09:10:50;201.05;;;87.70;;
21014;SDS011;19207;-23.482;-46.500;2022-09-09T09:13:43;207.62;;;84.95;;
21014;SDS011;19207;-23.482;-46.500;2022-09-09T09:16:35;185.40;;;82.55;;
21014;SDS011;19207;-23.482;-46.500;2022-09-09T09:19:25;182.62;;;78.30;;
21014;SDS011;19207;-23.482;-46.500;2022-09-09T09:22:26;187.23;;;79.70;;
21014;SDS011;19207;-23.482;-46.500;2022-09-09T09:25:23;182.68;;;75.12;;
21014;SDS011;19207;-23.482;-46.500;2022-09-09T09:33:47;183.07;;;73.87;;
21014;SDS011;19207;-23.482;-46.500;2022-09-09T09:39:26;146.27;;;63.10;;
21014;SDS011;19207;-23.482;-46.500;2022-09-09T09:42:16;134.10;;;56.70;;
21014;SDS011;19207;-23.482;-46.500;2022-09-09T09:45:14;137.73;;;55.63;;
21014;SDS011;19207;-23.482;-46.500;2022-09-09T09:48:08;128.85;;;54.45;;
21014;SDS011;19207;-23.482;-46.500;2022-09-09T09:51:00;139.12;;;56.20;;
21014;SDS011;19207;-23.482;-46.500;2022-09-09T09:53:47;186.15;;;81.30;;
21014;SDS011;19207;-23.482;-46.500;2022-09-09T09:56:34;214.48;;;89.18;;
21014;SDS011;19207;-23.482;-46.500;2022-09-09T10:05:12;146.37;;;67.18;;
21014;SDS011;19207;-23.482;-46.500;2022-09-09T10:08:02;125.32;;;55.55;;
21014;SDS011;19207;-23.482;-46.500;2022-09-09T10:13:51;100.32;;;44.05;;
21014;SDS011;19207;-23.482;-46.500;2022-09-09T10:19:38;103.80;;;45.05;;
21014;SDS011;19207;-23.482;-46.500;2022-09-09T10:22:32;117.40;;;47.15;;
21014;SDS011;19207;-23.482;-46.500;2022-09-09T10:25:25;121.15;;;48.75;;
21014;SDS011;19207;-23.482;-46.500;2022-09-09T10:28:30;107.65;;;50.10;;
21014;SDS011;19207;-23.482;-46.500;2022-09-09T10:34:13;126.93;;;57.47;;
21014;SDS011;19207;-23.482;-46.500;2022-09-09T10:37:02;130.80;;;59.13;;
21014;SDS011;19207;-23.482;-46.500;2022-09-09T10:39:54;138.07;;;60.65;;
21014;SDS011;19207;-23.482;-46.500;2022-09-09T10:42:43;121.78;;;56.60;;
21014;SDS011;19207;-23.482;-46.500;2022-09-09T10:45:39;138.45;;;68.03;;
21014;SDS011;19207;-23.482;-46.500;2022-09-09T10:54:35;109.05;;;45.12;;
21014;SDS011;19207;-23.482;-46.500;2022-09-09T11:00:18;98.62;;;43.63;;
21014;SDS011;19207;-23.482;-46.500;2022-09-09T11:03:05;107.55;;;43.60;;
21014;SDS011;19207;-23.482;-46.500;2022-09-09T11:05:53;107.50;;;45.03;;
21014;SDS011;19207;-23.482;-46.500;2022-09-09T11:08:41;104.07;;;43.78;;
21014;SDS011;19207;-23.482;-46.500;2022-09-09T11:11:36;103.35;;;45.20;;
21014;SDS011;19207;-23.482;-46.500;2022-09-09T11:14:32;110.93;;;46.22;;
21014;SDS011;19207;-23.482;-46.500;2022-09-09T11:20:42;106.82;;;46.42;;
21014;SDS011;19207;-23.482;-46.500;2022-09-09T11:23:34;127.95;;;50.97;;
21014;SDS011;19207;-23.482;-46.500;2022-09-09T11:26:36;120.40;;;48.20;;
21014;SDS011;19207;-23.482;-46.500;2022-09-09T11:32:34;118.13;;;46.37;;
21014;SDS011;19207;-23.482;-46.500;2022-09-09T11:35:30;119.80;;;48.10;;
21014;SDS011;19207;-23.482;-46.500;2022-09-09T11:38:19;129.50;;;55.67;;
21014;SDS011;19207;-23.482;-46.500;2022-09-09T11:41:07;113.28;;;49.15;;
21014;SDS011;19207;-23.482;-46.500;2022-09-09T11:43:55;119.68;;;48.33;;
21014;SDS011;19207;-23.482;-46.500;2022-09-09T11:46:42;93.78;;;44.78;;
21014;SDS011;19207;-23.482;-46.500;2022-09-09T11:49:29;98.62;;;44.63;;
21014;SDS011;19207;-23.482;-46.500;2022-09-09T11:52:37;95.82;;;44.20;;
21014;SDS011;19207;-23.482;-46.500;2022-09-09T11:55:27;101.75;;;44.55;;
21014;SDS011;19207;-23.482;-46.500;2022-09-09T11:58:18;103.90;;;43.20;;
21014;SDS011;19207;-23.482;-46.500;2022-09-09T12:01:16;101.07;;;42.88;;
21014;SDS011;19207;-23.482;-46.500;2022-09-09T12:12:38;93.45;;;40.38;;
21014;SDS011;19207;-23.482;-46.500;2022-09-09T12:15:26;84.82;;;38.53;;
21014;SDS011;19207;-23.482;-46.500;2022-09-09T12:24:07;73.22;;;30.85;;
21014;SDS011;19207;-23.482;-46.500;2022-09-09T12:27:01;63.90;;;29.85;;
21014;SDS011;19207;-23.482;-46.500;2022-09-09T12:29:56;66.03;;;28.58;;
21014;SDS011;19207;-23.482;-46.500;2022-09-09T12:32:44;87.75;;;30.88;;
21014;SDS011;19207;-23.482;-46.500;2022-09-09T12:35:31;83.90;;;30.50;;
21014;SDS011;19207;-23.482;-46.500;2022-09-09T12:38:30;74.60;;;31.55;;
21014;SDS011;19207;-23.482;-46.500;2022-09-09T12:41:19;88.30;;;31.42;;
21014;SDS011;19207;-23.482;-46.500;2022-09-09T12:44:09;67.97;;;31.58;;
21014;SDS011;19207;-23.482;-46.500;2022-09-09T12:46:58;64.47;;;26.95;;
21014;SDS011;19207;-23.482;-46.500;2022-09-09T12:49:45;71.72;;;28.35;;
21014;SDS011;19207;-23.482;-46.500;2022-09-09T12:52:37;68.32;;;25.98;;
21014;SDS011;19207;-23.482;-46.500;2022-09-09T12:55:24;59.20;;;26.10;;
21014;SDS011;19207;-23.482;-46.500;2022-09-09T12:58:15;59.47;;;25.35;;
21014;SDS011;19207;-23.482;-46.500;2022-09-09T13:01:03;71.97;;;22.65;;
21014;SDS011;19207;-23.482;-46.500;2022-09-09T13:03:50;41.53;;;19.77;;
21014;SDS011;19207;-23.482;-46.500;2022-09-09T13:06:37;39.05;;;19.67;;
21014;SDS011;19207;-23.482;-46.500;2022-09-09T13:09:24;37.67;;;18.92;;
21014;SDS011;19207;-23.482;-46.500;2022-09-09T13:12:21;152.75;;;22.77;;
21014;SDS011;19207;-23.482;-46.500;2022-09-09T13:15:14;43.83;;;18.08;;
21014;SDS011;19207;-23.482;-46.500;2022-09-09T13:18:06;36.83;;;18.25;;
21014;SDS011;19207;-23.482;-46.500;2022-09-09T13:20:56;29.55;;;12.40;;
21014;SDS011;19207;-23.482;-46.500;2022-09-09T13:23:42;48.78;;;18.15;;
21014;SDS011;19207;-23.482;-46.500;2022-09-09T13:26:34;21.85;;;9.63;;
21014;SDS011;19207;-23.482;-46.500;2022-09-09T13:29:20;23.08;;;9.20;;
21014;SDS011;19207;-23.482;-46.500;2022-09-09T13:32:12;16.75;;;8.80;;
21014;SDS011;19207;-23.482;-46.500;2022-09-09T13:35:02;23.90;;;9.27;;
21014;SDS011;19207;-23.482;-46.500;2022-09-09T13:37:48;21.05;;;9.93;;
21014;SDS011;19207;-23.482;-46.500;2022-09-09T13:40:34;17.23;;;9.68;;
21014;SDS011;19207;-23.482;-46.500;2022-09-09T13:43:22;34.35;;;9.90;;
21014;SDS011;19207;-23.482;-46.500;2022-09-09T13:52:11;18.30;;;9.73;;
21014;SDS011;19207;-23.482;-46.500;2022-09-09T13:54:58;16.37;;;9.73;;
21014;SDS011;19207;-23.482;-46.500;2022-09-09T13:57:58;19.10;;;10.43;;
21014;SDS011;19207;-23.482;-46.500;2022-09-09T14:00:48;20.40;;;10.15;;
21014;SDS011;19207;-23.482;-46.500;2022-09-09T14:03:35;28.40;;;10.52;;
21014;SDS011;19207;-23.482;-46.500;2022-09-09T14:06:22;21.02;;;9.80;;
21014;SDS011;19207;-23.482;-46.500;2022-09-09T14:09:13;24.87;;;9.90;;
21014;SDS011;19207;-23.482;-46.500;2022-09-09T14:11:59;23.83;;;9.60;;
21014;SDS011;19207;-23.482;-46.500;2022-09-09T14:14:47;21.85;;;10.15;;
21014;SDS011;19207;-23.482;-46.500;2022-09-09T14:17:34;38.20;;;10.07;;
21014;SDS011;19207;-23.482;-46.500;2022-09-09T14:20:21;27.20;;;10.25;;
21014;SDS011;19207;-23.482;-46.500;2022-09-09T14:23:09;23.35;;;10.25;;
21014;SDS011;19207;-23.482;-46.500;2022-09-09T14:25:57;18.83;;;10.07;;
21014;SDS011;19207;-23.482;-46.500;2022-09-09T14:28:43;22.08;;;9.77;;
21014;SDS011;19207;-23.482;-46.500;2022-09-09T14:31:31;26.10;;;10.40;;
21014;SDS011;19207;-23.482;-46.500;2022-09-09T14:34:18;27.42;;;10.07;;
21014;SDS011;19207;-23.482;-46.500;2022-09-09T14:37:04;21.27;;;10.13;;
21014;SDS011;19207;-23.482;-46.500;2022-09-09T14:39:51;23.80;;;8.63;;
21014;SDS011;19207;-23.482;-46.500;2022-09-09T14:42:39;27.13;;;9.55;;
21014;SDS011;19207;-23.482;-46.500;2022-09-09T14:45:26;17.33;;;9.40;;
21014;SDS011;19207;-23.482;-46.500;2022-09-09T14:48:12;22.05;;;9.30;;
21014;SDS011;19207;-23.482;-46.500;2022-09-09T14:51:16;16.33;;;9.52;;
21014;SDS011;19207;-23.482;-46.500;2022-09-09T14:54:04;18.70;;;9.57;;
21014;SDS011;19207;-23.482;-46.500;2022-09-09T14:56:51;16.40;;;9.43;;
21014;SDS011;19207;-23.482;-46.500;2022-09-09T14:59:37;22.90;;;9.73;;
21014;SDS011;19207;-23.482;-46.500;2022-09-09T15:02:24;21.02;;;9.52;;
21014;SDS011;19207;-23.482;-46.500;2022-09-09T15:05:11;24.70;;;9.23;;
21014;SDS011;19207;-23.482;-46.500;2022-09-09T15:07:57;22.73;;;9.82;;
21014;SDS011;19207;-23.482;-46.500;2022-09-09T15:10:44;30.12;;;10.20;;
21014;SDS011;19207;-23.482;-46.500;2022-09-09T15:13:32;20.88;;;9.88;;
21014;SDS011;19207;-23.482;-46.500;2022-09-09T15:16:19;17.90;;;8.93;;
21014;SDS011;19207;-23.482;-46.500;2022-09-09T15:19:07;22.35;;;9.30;;
21014;SDS011;19207;-23.482;-46.500;2022-09-09T15:21:54;19.50;;;9.77;;
21014;SDS011;19207;-23.482;-46.500;2022-09-09T15:24:41;21.17;;;9.85;;
21014;SDS011;19207;-23.482;-46.500;2022-09-09T15:27:28;17.95;;;9.43;;
21014;SDS011;19207;-23.482;-46.500;2022-09-09T15:30:16;16.40;;;8.93;;
21014;SDS011;19207;-23.482;-46.500;2022-09-09T15:33:07;17.40;;;9.27;;
21014;SDS011;19207;-23.482;-46.500;2022-09-09T15:35:53;22.67;;;9.88;;
21014;SDS011;19207;-23.482;-46.500;2022-09-09T15:38:40;19.02;;;9.82;;
21014;SDS011;19207;-23.482;-46.500;2022-09-09T15:41:28;19.40;;;10.10;;
21014;SDS011;19207;-23.482;-46.500;2022-09-09T15:44:16;17.73;;;9.85;;
21014;SDS011;19207;-23.482;-46.500;2022-09-09T15:47:04;14.87;;;10.05;;
21014;SDS011;19207;-23.482;-46.500;2022-09-09T15:49:51;18.30;;;10.63;;
21014;SDS011;19207;-23.482;-46.500;2022-09-09T15:52:39;20.98;;;11.07;;
21014;SDS011;19207;-23.482;-46.500;2022-09-09T15:55:26;20.50;;;11.15;;
21014;SDS011;19207;-23.482;-46.500;2022-09-09T15:58:14;20.88;;;11.05;;
21014;SDS011;19207;-23.482;-46.500;2022-09-09T16:01:04;20.25;;;10.30;;
21014;SDS011;19207;-23.482;-46.500;2022-09-09T16:03:52;23.45;;;10.77;;
21014;SDS011;19207;-23.482;-46.500;2022-09-09T16:06:38;20.20;;;10.85;;
21014;SDS011;19207;-23.482;-46.500;2022-09-09T16:09:25;20.48;;;10.77;;
21014;SDS011;19207;-23.482;-46.500;2022-09-09T16:12:12;19.73;;;10.23;;
21014;SDS011;19207;-23.482;-46.500;2022-09-09T16:14:59;25.33;;;10.70;;
21014;SDS011;19207;-23.482;-46.500;2022-09-09T16:17:46;25.83;;;11.60;;
21014;SDS011;19207;-23.482;-46.500;2022-09-09T16:20:33;15.73;;;10.52;;
21014;SDS011;19207;-23.482;-46.500;2022-09-09T16:23:21;21.85;;;9.90;;
21014;SDS011;19207;-23.482;-46.500;2022-09-09T16:26:08;19.90;;;10.00;;
21014;SDS011;19207;-23.482;-46.500;2022-09-09T16:28:56;20.65;;;10.35;;
21014;SDS011;19207;-23.482;-46.500;2022-09-09T16:31:46;17.35;;;10.65;;
21014;SDS011;19207;-23.482;-46.500;2022-09-09T16:34:33;19.58;;;12.93;;
21014;SDS011;19207;-23.482;-46.500;2022-09-09T16:37:20;22.60;;;12.80;;
21014;SDS011;19207;-23.482;-46.500;2022-09-09T16:40:07;28.42;;;13.23;;
21014;SDS011;19207;-23.482;-46.500;2022-09-09T16:42:54;26.83;;;12.32;;
21014;SDS011;19207;-23.482;-46.500;2022-09-09T16:45:44;24.83;;;11.30;;
21014;SDS011;19207;-23.482;-46.500;2022-09-09T16:48:33;22.08;;;11.48;;
21014;SDS011;19207;-23.482;-46.500;2022-09-09T16:51:24;29.10;;;12.60;;
21014;SDS011;19207;-23.482;-46.500;2022-09-09T16:54:13;23.12;;;12.63;;
21014;SDS011;19207;-23.482;-46.500;2022-09-09T16:57:01;27.05;;;13.13;;
21014;SDS011;19207;-23.482;-46.500;2022-09-09T16:59:48;19.83;;;12.98;;
21014;SDS011;19207;-23.482;-46.500;2022-09-09T17:02:35;20.30;;;12.75;;
21014;SDS011;19207;-23.482;-46.500;2022-09-09T17:05:22;25.80;;;12.77;;
21014;SDS011;19207;-23.482;-46.500;2022-09-09T17:08:10;21.45;;;12.35;;
21014;SDS011;19207;-23.482;-46.500;2022-09-09T17:10:57;25.73;;;12.63;;
21014;SDS011;19207;-23.482;-46.500;2022-09-09T17:13:46;25.33;;;12.63;;
21014;SDS011;19207;-23.482;-46.500;2022-09-09T17:16:33;24.50;;;11.95;;